sensor_id;sensor_type;location;lat;lon;timestamp;P1;durP1;ratioP1;P2;durP2;ratioP2
9821;SDS011;4950;46.042;14.472;2023-08-07T00:01:44;2.20;;;1.80;;
9821;SDS011;4950;46.042;14.472;2023-08-07T00:04:11;2.40;;;1.40;;
9821;SDS011;4950;46.042;14.472;2023-08-07T00:06:38;5.10;;;1.35;;
9821;SDS011;4950;46.042;14.472;2023-08-07T00:09:06;4.95;;;1.70;;
9821;SDS011;4950;46.042;14.472;2023-08-07T00:11:33;3.83;;;1.38;;
9821;SDS011;4950;46.042;14.472;2023-08-07T00:14:00;2.90;;;1.42;;
9821;SDS011;4950;46.042;14.472;2023-08-07T00:16:27;1.85;;;1.38;;
9821;SDS011;4950;46.042;14.472;2023-08-07T00:18:53;4.07;;;1.35;;
9821;SDS011;4950;46.042;14.472;2023-08-07T00:21:21;1.75;;;1.20;;
9821;SDS011;4950;46.042;14.472;2023-08-07T00:23:48;2.28;;;0.85;;
9821;SDS011;4950;46.042;14.472;2023-08-07T00:26:16;2.17;;;1.00;;
9821;SDS011;4950;46.042;14.472;2023-08-07T00:28:43;3.33;;;0.88;;
9821;SDS011;4950;46.042;14.472;2023-08-07T00:31:09;1.90;;;1.13;;
9821;SDS011;4950;46.042;14.472;2023-08-07T00:33:37;1.20;;;1.00;;
9821;SDS011;4950;46.042;14.472;2023-08-07T00:36:04;1.70;;;0.90;;
9821;SDS011;4950;46.042;14.472;2023-08-07T00:38:31;2.85;;;1.10;;
9821;SDS011;4950;46.042;14.472;2023-08-07T00:40:58;5.57;;;1.20;;
9821;SDS011;4950;46.042;14.472;2023-08-07T00:43:26;1.85;;;0.93;;
9821;SDS011;4950;46.042;14.472;2023-08-07T00:45:53;3.38;;;1.33;;
9821;SDS011;4950;46.042;14.472;2023-08-07T00:48:20;5.53;;;1.25;;
9821;SDS011;4950;46.042;14.472;2023-08-07T00:50:47;3.08;;;1.40;;
9821;SDS011;4950;46.042;14.472;2023-08-07T00:53:15;3.53;;;1.10;;
9821;SDS011;4950;46.042;14.472;2023-08-07T00:55:42;2.80;;;1.50;;
9821;SDS011;4950;46.042;14.472;2023-08-07T00:58:10;2.75;;;1.52;;
9821;SDS011;4950;46.042;14.472;2023-08-07T01:00:38;4.47;;;1.15;;
9821;SDS011;4950;46.042;14.472;2023-08-07T01:03:07;4.90;;;1.92;;
9821;SDS011;4950;46.042;14.472;2023-08-07T01:05:34;6.28;;;1.60;;
9821;SDS011;4950;46.042;14.472;2023-08-07T01:08:01;1.85;;;1.33;;
9821;SDS011;4950;46.042;14.472;2023-08-07T01:10:31;1.45;;;1.20;;
9821;SDS011;4950;46.042;14.472;2023-08-07T01:13:08;2.35;;;1.17;;
9821;SDS011;4950;46.042;14.472;2023-08-07T01:15:41;1.50;;;1.00;;
9821;SDS011;4950;46.042;14.472;2023-08-07T01:18:08;2.22;;;1.45;;
9821;SDS011;4950;46.042;14.472;2023-08-07T01:20:35;2.97;;;1.20;;
9821;SDS011;4950;46.042;14.472;2023-08-07T01:25:32;2.90;;;1.63;;
9821;SDS011;4950;46.042;14.472;2023-08-07T01:30:33;2.50;;;1.40;;
9821;SDS011;4950;46.042;14.472;2023-08-07T01:33:04;3.00;;;1.27;;
9821;SDS011;4950;46.042;14.472;2023-08-07T01:35:39;8.68;;;2.45;;
9821;SDS011;4950;46.042;14.472;2023-08-07T01:38:10;6.68;;;2.05;;
9821;SDS011;4950;46.042;14.472;2023-08-07T01:40:38;2.42;;;1.80;;
9821;SDS011;4950;46.042;14.472;2023-08-07T01:43:05;2.70;;;1.63;;
9821;SDS011;4950;46.042;14.472;2023-08-07T01:45:32;2.92;;;1.30;;
9821;SDS011;4950;46.042;14.472;2023-08-07T01:47:59;2.45;;;1.35;;
9821;SDS011;4950;46.042;14.472;2023-08-07T01:50:27;2.35;;;1.77;;
9821;SDS011;4950;46.042;14.472;2023-08-07T01:52:54;3.83;;;1.27;;
9821;SDS011;4950;46.042;14.472;2023-08-07T01:55:22;1.35;;;1.23;;
9821;SDS011;4950;46.042;14.472;2023-08-07T01:57:49;1.83;;;1.10;;
9821;SDS011;4950;46.042;14.472;2023-08-07T02:00:16;2.10;;;1.30;;
9821;SDS011;4950;46.042;14.472;2023-08-07T02:02:43;2.33;;;1.40;;
9821;SDS011;4950;46.042;14.472;2023-08-07T02:05:11;2.10;;;1.52;;
9821;SDS011;4950;46.042;14.472;2023-08-07T02:07:39;2.53;;;1.77;;
9821;SDS011;4950;46.042;14.472;2023-08-07T02:10:06;1.80;;;1.30;;
9821;SDS011;4950;46.042;14.472;2023-08-07T02:12:34;3.35;;;1.50;;
9821;SDS011;4950;46.042;14.472;2023-08-07T02:15:01;2.58;;;1.33;;
9821;SDS011;4950;46.042;14.472;2023-08-07T02:17:29;4.22;;;1.60;;
9821;SDS011;4950;46.042;14.472;2023-08-07T02:19:56;2.35;;;1.30;;
9821;SDS011;4950;46.042;14.472;2023-08-07T02:22:23;4.25;;;1.25;;
9821;SDS011;4950;46.042;14.472;2023-08-07T02:24:50;2.40;;;1.33;;
9821;SDS011;4950;46.042;14.472;2023-08-07T02:27:17;3.80;;;1.50;;
9821;SDS011;4950;46.042;14.472;2023-08-07T02:29:45;5.38;;;1.10;;
9821;SDS011;4950;46.042;14.472;2023-08-07T02:32:11;3.38;;;1.10;;
9821;SDS011;4950;46.042;14.472;2023-08-07T02:34:38;1.73;;;1.15;;
9821;SDS011;4950;46.042;14.472;2023-08-07T02:37:05;4.00;;;1.50;;
9821;SDS011;4950;46.042;14.472;2023-08-07T02:39:32;2.88;;;1.45;;
9821;SDS011;4950;46.042;14.472;2023-08-07T02:41:59;2.33;;;1.52;;
9821;SDS011;4950;46.042;14.472;2023-08-07T02:44:26;6.47;;;2.28;;
9821;SDS011;4950;46.042;14.472;2023-08-07T02:46:54;5.03;;;1.25;;
9821;SDS011;4950;46.042;14.472;2023-08-07T02:49:21;3.08;;;1.58;;
9821;SDS011;4950;46.042;14.472;2023-08-07T02:51:48;1.42;;;1.27;;
9821;SDS011;4950;46.042;14.472;2023-08-07T02:54:14;2.78;;;1.50;;
9821;SDS011;4950;46.042;14.472;2023-08-07T02:56:41;1.70;;;1.27;;
9821;SDS011;4950;46.042;14.472;2023-08-07T02:59:08;4.25;;;1.80;;
9821;SDS011;4950;46.042;14.472;2023-08-07T03:01:34;11.27;;;2.65;;
9821;SDS011;4950;46.042;14.472;2023-08-07T03:04:03;5.32;;;3.20;;
9821;SDS011;4950;46.042;14.472;2023-08-07T03:06:30;4.50;;;2.42;;
9821;SDS011;4950;46.042;14.472;2023-08-07T03:08:57;5.35;;;3.08;;
9821;SDS011;4950;46.042;14.472;2023-08-07T03:11:23;4.05;;;2.42;;
9821;SDS011;4950;46.042;14.472;2023-08-07T03:13:50;4.15;;;2.47;;
9821;SDS011;4950;46.042;14.472;2023-08-07T03:16:17;4.60;;;2.88;;
9821;SDS011;4950;46.042;14.472;2023-08-07T03:18:44;4.60;;;2.65;;
9821;SDS011;4950;46.042;14.472;2023-08-07T03:21:13;5.25;;;2.95;;
9821;SDS011;4950;46.042;14.472;2023-08-07T03:23:40;4.63;;;3.33;;
9821;SDS011;4950;46.042;14.472;2023-08-07T03:26:07;4.10;;;2.42;;
9821;SDS011;4950;46.042;14.472;2023-08-07T03:28:35;4.83;;;2.60;;
9821;SDS011;4950;46.042;14.472;2023-08-07T03:31:02;6.50;;;3.25;;
9821;SDS011;4950;46.042;14.472;2023-08-07T03:33:30;3.88;;;2.65;;
9821;SDS011;4950;46.042;14.472;2023-08-07T03:35:57;5.70;;;2.90;;
9821;SDS011;4950;46.042;14.472;2023-08-07T03:38:25;3.95;;;2.53;;
9821;SDS011;4950;46.042;14.472;2023-08-07T03:40:52;4.05;;;2.70;;
9821;SDS011;4950;46.042;14.472;2023-08-07T03:43:18;4.32;;;2.90;;
9821;SDS011;4950;46.042;14.472;2023-08-07T03:45:45;4.78;;;3.05;;
9821;SDS011;4950;46.042;14.472;2023-08-07T03:48:12;4.15;;;2.78;;
9821;SDS011;4950;46.042;14.472;2023-08-07T03:50:39;4.75;;;3.35;;
9821;SDS011;4950;46.042;14.472;2023-08-07T03:53:05;8.30;;;3.22;;
9821;SDS011;4950;46.042;14.472;2023-08-07T03:55:34;4.88;;;3.47;;
9821;SDS011;4950;46.042;14.472;2023-08-07T03:58:01;4.57;;;3.10;;
9821;SDS011;4950;46.042;14.472;2023-08-07T04:00:28;5.78;;;3.15;;
9821;SDS011;4950;46.042;14.472;2023-08-07T04:02:55;5.55;;;3.53;;
9821;SDS011;4950;46.042;14.472;2023-08-07T04:05:22;6.35;;;3.30;;
9821;SDS011;4950;46.042;14.472;2023-08-07T04:07:49;4.93;;;3.10;;
9821;SDS011;4950;46.042;14.472;2023-08-07T04:10:15;5.70;;;3.90;;
9821;SDS011;4950;46.042;14.472;2023-08-07T04:12:44;6.18;;;3.90;;
9821;SDS011;4950;46.042;14.472;2023-08-07T04:15:10;5.70;;;3.80;;
9821;SDS011;4950;46.042;14.472;2023-08-07T04:17:37;6.32;;;3.95;;
9821;SDS011;4950;46.042;14.472;2023-08-07T04:20:05;6.35;;;4.20;;
9821;SDS011;4950;46.042;14.472;2023-08-07T04:22:33;7.63;;;4.07;;
9821;SDS011;4950;46.042;14.472;2023-08-07T04:25:00;7.28;;;4.13;;
9821;SDS011;4950;46.042;14.472;2023-08-07T04:27:27;5.32;;;3.45;;
9821;SDS011;4950;46.042;14.472;2023-08-07T04:29:55;8.20;;;3.70;;
9821;SDS011;4950;46.042;14.472;2023-08-07T04:32:23;5.30;;;3.70;;
9821;SDS011;4950;46.042;14.472;2023-08-07T04:34:49;7.45;;;4.20;;
9821;SDS011;4950;46.042;14.472;2023-08-07T04:37:16;6.43;;;3.40;;
9821;SDS011;4950;46.042;14.472;2023-08-07T04:39:43;7.75;;;3.83;;
9821;SDS011;4950;46.042;14.472;2023-08-07T04:42:10;5.70;;;3.42;;
9821;SDS011;4950;46.042;14.472;2023-08-07T04:44:37;5.30;;;3.30;;
9821;SDS011;4950;46.042;14.472;2023-08-07T04:47:05;7.60;;;4.20;;
9821;SDS011;4950;46.042;14.472;2023-08-07T04:49:32;6.82;;;3.67;;
9821;SDS011;4950;46.042;14.472;2023-08-07T04:51:59;6.13;;;4.15;;
9821;SDS011;4950;46.042;14.472;2023-08-07T04:54:26;6.22;;;4.22;;
9821;SDS011;4950;46.042;14.472;2023-08-07T04:56:53;6.78;;;4.22;;
9821;SDS011;4950;46.042;14.472;2023-08-07T04:59:19;7.32;;;4.97;;
9821;SDS011;4950;46.042;14.472;2023-08-07T05:01:46;5.82;;;3.85;;
9821;SDS011;4950;46.042;14.472;2023-08-07T05:04:14;5.65;;;3.92;;
9821;SDS011;4950;46.042;14.472;2023-08-07T05:06:41;4.88;;;3.15;;
9821;SDS011;4950;46.042;14.472;2023-08-07T05:09:08;5.95;;;3.95;;
9821;SDS011;4950;46.042;14.472;2023-08-07T05:11:34;5.95;;;3.83;;
9821;SDS011;4950;46.042;14.472;2023-08-07T05:14:01;6.32;;;3.78;;
9821;SDS011;4950;46.042;14.472;2023-08-07T05:16:28;7.47;;;4.18;;
9821;SDS011;4950;46.042;14.472;2023-08-07T05:18:55;5.47;;;3.38;;
9821;SDS011;4950;46.042;14.472;2023-08-07T05:21:23;5.50;;;3.50;;
9821;SDS011;4950;46.042;14.472;2023-08-07T05:23:50;4.53;;;2.93;;
9821;SDS011;4950;46.042;14.472;2023-08-07T05:26:18;4.55;;;2.90;;
9821;SDS011;4950;46.042;14.472;2023-08-07T05:28:45;5.68;;;2.70;;
9821;SDS011;4950;46.042;14.472;2023-08-07T05:31:12;3.72;;;2.45;;
9821;SDS011;4950;46.042;14.472;2023-08-07T05:33:39;5.32;;;2.60;;
9821;SDS011;4950;46.042;14.472;2023-08-07T05:36:06;4.57;;;2.70;;
9821;SDS011;4950;46.042;14.472;2023-08-07T05:38:34;8.38;;;3.75;;
9821;SDS011;4950;46.042;14.472;2023-08-07T05:41:01;6.57;;;3.37;;
9821;SDS011;4950;46.042;14.472;2023-08-07T05:43:28;4.50;;;2.78;;
9821;SDS011;4950;46.042;14.472;2023-08-07T05:46:00;5.95;;;3.10;;
9821;SDS011;4950;46.042;14.472;2023-08-07T05:48:27;7.40;;;3.20;;
9821;SDS011;4950;46.042;14.472;2023-08-07T05:50:53;4.63;;;2.60;;
9821;SDS011;4950;46.042;14.472;2023-08-07T05:53:20;4.05;;;2.35;;
9821;SDS011;4950;46.042;14.472;2023-08-07T05:55:48;3.95;;;2.47;;
9821;SDS011;4950;46.042;14.472;2023-08-07T05:58:16;5.30;;;2.85;;
9821;SDS011;4950;46.042;14.472;2023-08-07T06:00:42;5.88;;;2.85;;
9821;SDS011;4950;46.042;14.472;2023-08-07T06:03:09;3.60;;;2.50;;
9821;SDS011;4950;46.042;14.472;2023-08-07T06:05:36;4.10;;;2.55;;
9821;SDS011;4950;46.042;14.472;2023-08-07T06:08:03;6.03;;;2.42;;
9821;SDS011;4950;46.042;14.472;2023-08-07T06:10:30;5.07;;;2.22;;
9821;SDS011;4950;46.042;14.472;2023-08-07T06:13:01;3.42;;;1.90;;
9821;SDS011;4950;46.042;14.472;2023-08-07T06:15:31;3.13;;;1.92;;
9821;SDS011;4950;46.042;14.472;2023-08-07T06:18:00;7.03;;;2.72;;
9821;SDS011;4950;46.042;14.472;2023-08-07T06:23:00;7.70;;;3.00;;
9821;SDS011;4950;46.042;14.472;2023-08-07T06:25:26;5.47;;;3.67;;
9821;SDS011;4950;46.042;14.472;2023-08-07T06:27:53;7.55;;;3.60;;
9821;SDS011;4950;46.042;14.472;2023-08-07T06:30:23;6.95;;;3.45;;
9821;SDS011;4950;46.042;14.472;2023-08-07T06:32:49;7.63;;;3.50;;
9821;SDS011;4950;46.042;14.472;2023-08-07T06:35:16;5.82;;;3.90;;
9821;SDS011;4950;46.042;14.472;2023-08-07T06:37:43;4.78;;;3.30;;
9821;SDS011;4950;46.042;14.472;2023-08-07T06:40:10;6.43;;;2.78;;
9821;SDS011;4950;46.042;14.472;2023-08-07T06:42:37;5.15;;;3.40;;
9821;SDS011;4950;46.042;14.472;2023-08-07T06:45:05;7.55;;;3.90;;
9821;SDS011;4950;46.042;14.472;2023-08-07T06:47:34;6.45;;;3.50;;
9821;SDS011;4950;46.042;14.472;2023-08-07T06:50:00;5.72;;;3.53;;
9821;SDS011;4950;46.042;14.472;2023-08-07T06:52:27;8.95;;;3.83;;
9821;SDS011;4950;46.042;14.472;2023-08-07T06:54:54;9.00;;;3.85;;
9821;SDS011;4950;46.042;14.472;2023-08-07T06:57:21;5.20;;;3.95;;
9821;SDS011;4950;46.042;14.472;2023-08-07T06:59:48;12.27;;;3.67;;
9821;SDS011;4950;46.042;14.472;2023-08-07T07:02:14;6.00;;;3.58;;
9821;SDS011;4950;46.042;14.472;2023-08-07T07:04:42;7.45;;;4.03;;
9821;SDS011;4950;46.042;14.472;2023-08-07T07:07:09;5.68;;;3.80;;
9821;SDS011;4950;46.042;14.472;2023-08-07T07:09:36;6.30;;;4.25;;
9821;SDS011;4950;46.042;14.472;2023-08-07T07:12:03;6.75;;;4.00;;
9821;SDS011;4950;46.042;14.472;2023-08-07T07:14:32;5.05;;;3.33;;
9821;SDS011;4950;46.042;14.472;2023-08-07T07:16:59;6.85;;;3.45;;
9821;SDS011;4950;46.042;14.472;2023-08-07T07:19:26;5.78;;;3.63;;
9821;SDS011;4950;46.042;14.472;2023-08-07T07:21:54;7.70;;;4.22;;
9821;SDS011;4950;46.042;14.472;2023-08-07T07:24:21;6.40;;;3.97;;
9821;SDS011;4950;46.042;14.472;2023-08-07T07:26:48;5.57;;;3.83;;
9821;SDS011;4950;46.042;14.472;2023-08-07T07:29:16;8.80;;;4.20;;
9821;SDS011;4950;46.042;14.472;2023-08-07T07:31:43;7.32;;;3.70;;
9821;SDS011;4950;46.042;14.472;2023-08-07T07:34:10;6.15;;;3.70;;
9821;SDS011;4950;46.042;14.472;2023-08-07T07:36:36;6.95;;;3.80;;
9821;SDS011;4950;46.042;14.472;2023-08-07T07:39:05;6.93;;;3.17;;
9821;SDS011;4950;46.042;14.472;2023-08-07T07:41:31;7.57;;;3.33;;
9821;SDS011;4950;46.042;14.472;2023-08-07T07:43:58;5.65;;;3.65;;
9821;SDS011;4950;46.042;14.472;2023-08-07T07:46:27;5.97;;;3.55;;
9821;SDS011;4950;46.042;14.472;2023-08-07T07:48:54;8.88;;;3.65;;
9821;SDS011;4950;46.042;14.472;2023-08-07T07:51:21;5.13;;;3.38;;
9821;SDS011;4950;46.042;14.472;2023-08-07T07:53:48;8.48;;;3.40;;
9821;SDS011;4950;46.042;14.472;2023-08-07T07:56:16;4.70;;;3.10;;
9821;SDS011;4950;46.042;14.472;2023-08-07T07:58:43;6.68;;;3.13;;
9821;SDS011;4950;46.042;14.472;2023-08-07T08:01:10;6.38;;;3.38;;
9821;SDS011;4950;46.042;14.472;2023-08-07T08:03:36;8.02;;;3.92;;
9821;SDS011;4950;46.042;14.472;2023-08-07T08:06:03;8.75;;;3.28;;
9821;SDS011;4950;46.042;14.472;2023-08-07T08:08:30;5.32;;;3.50;;
9821;SDS011;4950;46.042;14.472;2023-08-07T08:10:57;6.60;;;3.30;;
9821;SDS011;4950;46.042;14.472;2023-08-07T08:13:25;3.95;;;2.63;;
9821;SDS011;4950;46.042;14.472;2023-08-07T08:15:52;3.88;;;2.45;;
9821;SDS011;4950;46.042;14.472;2023-08-07T08:18:19;4.05;;;2.72;;
9821;SDS011;4950;46.042;14.472;2023-08-07T08:20:46;5.38;;;3.10;;
9821;SDS011;4950;46.042;14.472;2023-08-07T08:23:12;4.10;;;2.75;;
9821;SDS011;4950;46.042;14.472;2023-08-07T08:25:39;6.47;;;3.05;;
9821;SDS011;4950;46.042;14.472;2023-08-07T08:28:06;4.38;;;2.95;;
9821;SDS011;4950;46.042;14.472;2023-08-07T08:30:34;3.90;;;2.75;;
9821;SDS011;4950;46.042;14.472;2023-08-07T08:33:01;8.57;;;3.42;;
9821;SDS011;4950;46.042;14.472;2023-08-07T08:35:30;4.93;;;3.13;;
9821;SDS011;4950;46.042;14.472;2023-08-07T08:37:57;7.53;;;3.40;;
9821;SDS011;4950;46.042;14.472;2023-08-07T08:40:24;8.23;;;3.30;;
9821;SDS011;4950;46.042;14.472;2023-08-07T08:42:51;7.38;;;3.20;;
9821;SDS011;4950;46.042;14.472;2023-08-07T08:45:18;3.90;;;2.53;;
9821;SDS011;4950;46.042;14.472;2023-08-07T08:47:49;5.53;;;3.05;;
9821;SDS011;4950;46.042;14.472;2023-08-07T08:50:17;6.22;;;3.00;;
9821;SDS011;4950;46.042;14.472;2023-08-07T08:52:45;5.45;;;2.80;;
9821;SDS011;4950;46.042;14.472;2023-08-07T08:55:12;3.72;;;2.63;;
9821;SDS011;4950;46.042;14.472;2023-08-07T08:57:39;4.20;;;2.15;;
9821;SDS011;4950;46.042;14.472;2023-08-07T09:00:07;8.48;;;3.33;;
9821;SDS011;4950;46.042;14.472;2023-08-07T09:02:43;5.05;;;3.17;;
9821;SDS011;4950;46.042;14.472;2023-08-07T09:05:11;5.00;;;2.92;;
9821;SDS011;4950;46.042;14.472;2023-08-07T09:07:38;4.50;;;2.97;;
9821;SDS011;4950;46.042;14.472;2023-08-07T09:10:05;4.63;;;2.72;;
9821;SDS011;4950;46.042;14.472;2023-08-07T09:12:34;3.67;;;2.70;;
9821;SDS011;4950;46.042;14.472;2023-08-07T09:15:06;4.75;;;2.65;;
9821;SDS011;4950;46.042;14.472;2023-08-07T09:20:05;9.25;;;3.90;;
9821;SDS011;4950;46.042;14.472;2023-08-07T09:22:37;6.80;;;3.13;;
9821;SDS011;4950;46.042;14.472;2023-08-07T09:25:05;7.10;;;3.10;;
9821;SDS011;4950;46.042;14.472;2023-08-07T09:27:32;6.35;;;4.00;;
9821;SDS011;4950;46.042;14.472;2023-08-07T09:30:01;6.93;;;2.30;;
9821;SDS011;4950;46.042;14.472;2023-08-07T09:32:29;4.80;;;3.35;;
9821;SDS011;4950;46.042;14.472;2023-08-07T09:34:56;5.18;;;3.45;;
9821;SDS011;4950;46.042;14.472;2023-08-07T09:37:24;6.53;;;3.15;;
9821;SDS011;4950;46.042;14.472;2023-08-07T09:39:52;5.38;;;3.13;;
9821;SDS011;4950;46.042;14.472;2023-08-07T09:42:19;5.00;;;2.60;;
9821;SDS011;4950;46.042;14.472;2023-08-07T09:44:46;5.93;;;3.35;;
9821;SDS011;4950;46.042;14.472;2023-08-07T09:47:15;4.30;;;2.83;;
9821;SDS011;4950;46.042;14.472;2023-08-07T09:52:10;5.82;;;2.92;;
9821;SDS011;4950;46.042;14.472;2023-08-07T09:54:39;6.28;;;2.30;;
9821;SDS011;4950;46.042;14.472;2023-08-07T09:57:07;3.80;;;1.90;;
9821;SDS011;4950;46.042;14.472;2023-08-07T09:59:34;4.50;;;2.63;;
9821;SDS011;4950;46.042;14.472;2023-08-07T10:02:01;5.68;;;2.00;;
9821;SDS011;4950;46.042;14.472;2023-08-07T10:04:29;3.83;;;2.00;;
9821;SDS011;4950;46.042;14.472;2023-08-07T10:06:56;4.45;;;2.15;;
9821;SDS011;4950;46.042;14.472;2023-08-07T10:09:24;5.80;;;2.05;;
9821;SDS011;4950;46.042;14.472;2023-08-07T10:11:53;2.45;;;1.70;;
9821;SDS011;4950;46.042;14.472;2023-08-07T10:14:23;4.25;;;1.83;;
9821;SDS011;4950;46.042;14.472;2023-08-07T10:16:50;3.42;;;1.85;;
9821;SDS011;4950;46.042;14.472;2023-08-07T10:19:18;5.70;;;1.48;;
9821;SDS011;4950;46.042;14.472;2023-08-07T10:21:45;4.70;;;1.65;;
9821;SDS011;4950;46.042;14.472;2023-08-07T10:24:13;1.98;;;1.33;;
9821;SDS011;4950;46.042;14.472;2023-08-07T10:26:43;2.15;;;1.25;;
9821;SDS011;4950;46.042;14.472;2023-08-07T10:29:12;1.83;;;1.13;;
9821;SDS011;4950;46.042;14.472;2023-08-07T10:31:42;1.13;;;1.00;;
9821;SDS011;4950;46.042;14.472;2023-08-07T10:34:11;4.13;;;1.50;;
9821;SDS011;4950;46.042;14.472;2023-08-07T10:36:37;2.13;;;0.90;;
9821;SDS011;4950;46.042;14.472;2023-08-07T10:39:06;1.20;;;1.10;;
9821;SDS011;4950;46.042;14.472;2023-08-07T10:41:38;1.98;;;1.15;;
9821;SDS011;4950;46.042;14.472;2023-08-07T10:44:11;3.35;;;1.30;;
9821;SDS011;4950;46.042;14.472;2023-08-07T10:46:47;3.58;;;1.58;;
9821;SDS011;4950;46.042;14.472;2023-08-07T10:49:31;1.92;;;1.10;;
9821;SDS011;4950;46.042;14.472;2023-08-07T10:52:02;2.25;;;1.10;;
9821;SDS011;4950;46.042;14.472;2023-08-07T10:56:56;1.90;;;0.93;;
9821;SDS011;4950;46.042;14.472;2023-08-07T10:59:22;2.67;;;1.30;;
9821;SDS011;4950;46.042;14.472;2023-08-07T11:01:55;4.47;;;1.70;;
9821;SDS011;4950;46.042;14.472;2023-08-07T11:04:21;1.83;;;1.15;;
9821;SDS011;4950;46.042;14.472;2023-08-07T11:06:52;0.85;;;0.80;;
9821;SDS011;4950;46.042;14.472;2023-08-07T11:09:19;4.82;;;1.00;;
9821;SDS011;4950;46.042;14.472;2023-08-07T11:11:46;2.88;;;0.80;;
9821;SDS011;4950;46.042;14.472;2023-08-07T11:14:14;1.38;;;0.70;;
9821;SDS011;4950;46.042;14.472;2023-08-07T11:16:42;1.80;;;0.70;;
9821;SDS011;4950;46.042;14.472;2023-08-07T11:19:13;1.17;;;0.90;;
9821;SDS011;4950;46.042;14.472;2023-08-07T11:21:41;7.45;;;0.73;;
9821;SDS011;4950;46.042;14.472;2023-08-07T11:24:09;2.03;;;1.00;;
9821;SDS011;4950;46.042;14.472;2023-08-07T11:26:38;0.40;;;0.40;;
9821;SDS011;4950;46.042;14.472;2023-08-07T11:29:05;0.65;;;0.60;;
9821;SDS011;4950;46.042;14.472;2023-08-07T11:31:32;0.60;;;0.60;;
9821;SDS011;4950;46.042;14.472;2023-08-07T11:33:59;0.73;;;0.57;;
9821;SDS011;4950;46.042;14.472;2023-08-07T11:36:29;1.38;;;0.60;;
9821;SDS011;4950;46.042;14.472;2023-08-07T11:38:56;1.80;;;0.68;;
9821;SDS011;4950;46.042;14.472;2023-08-07T11:41:23;3.17;;;0.90;;
9821;SDS011;4950;46.042;14.472;2023-08-07T11:43:50;0.77;;;0.70;;
9821;SDS011;4950;46.042;14.472;2023-08-07T11:46:17;0.77;;;0.70;;
9821;SDS011;4950;46.042;14.472;2023-08-07T11:48:44;1.17;;;0.70;;
9821;SDS011;4950;46.042;14.472;2023-08-07T11:51:11;0.98;;;0.70;;
9821;SDS011;4950;46.042;14.472;2023-08-07T11:53:39;0.90;;;0.80;;
9821;SDS011;4950;46.042;14.472;2023-08-07T11:56:08;1.02;;;0.85;;
9821;SDS011;4950;46.042;14.472;2023-08-07T11:58:36;1.30;;;0.85;;
9821;SDS011;4950;46.042;14.472;2023-08-07T12:01:04;0.80;;;0.75;;
9821;SDS011;4950;46.042;14.472;2023-08-07T12:03:32;3.92;;;1.15;;
9821;SDS011;4950;46.042;14.472;2023-08-07T12:06:03;3.95;;;0.77;;
9821;SDS011;4950;46.042;14.472;2023-08-07T12:08:32;2.67;;;1.10;;
9821;SDS011;4950;46.042;14.472;2023-08-07T12:11:02;1.73;;;0.85;;
9821;SDS011;4950;46.042;14.472;2023-08-07T12:13:30;3.42;;;0.88;;
9821;SDS011;4950;46.042;14.472;2023-08-07T12:16:00;1.25;;;0.70;;
9821;SDS011;4950;46.042;14.472;2023-08-07T12:18:27;0.65;;;0.55;;
9821;SDS011;4950;46.042;14.472;2023-08-07T12:20:56;0.50;;;0.50;;
9821;SDS011;4950;46.042;14.472;2023-08-07T12:23:24;0.50;;;0.50;;
9821;SDS011;4950;46.042;14.472;2023-08-07T12:25:51;0.60;;;0.50;;
9821;SDS011;4950;46.042;14.472;2023-08-07T12:28:20;1.30;;;0.68;;
9821;SDS011;4950;46.042;14.472;2023-08-07T12:30:47;0.40;;;0.40;;
9821;SDS011;4950;46.042;14.472;2023-08-07T12:33:14;0.90;;;0.50;;
9821;SDS011;4950;46.042;14.472;2023-08-07T12:35:41;0.65;;;0.50;;
9821;SDS011;4950;46.042;14.472;2023-08-07T12:38:08;0.55;;;0.52;;
9821;SDS011;4950;46.042;14.472;2023-08-07T12:40:35;1.00;;;0.38;;
9821;SDS011;4950;46.042;14.472;2023-08-07T12:43:03;0.40;;;0.40;;
9821;SDS011;4950;46.042;14.472;2023-08-07T12:45:31;0.63;;;0.40;;
9821;SDS011;4950;46.042;14.472;2023-08-07T12:47:58;1.23;;;0.70;;
9821;SDS011;4950;46.042;14.472;2023-08-07T12:50:25;0.68;;;0.50;;
9821;SDS011;4950;46.042;14.472;2023-08-07T12:52:52;0.40;;;0.40;;
9821;SDS011;4950;46.042;14.472;2023-08-07T12:55:18;0.60;;;0.60;;
9821;SDS011;4950;46.042;14.472;2023-08-07T12:57:45;2.88;;;0.50;;
9821;SDS011;4950;46.042;14.472;2023-08-07T13:00:13;0.50;;;0.47;;
9821;SDS011;4950;46.042;14.472;2023-08-07T13:02:43;0.43;;;0.40;;
9821;SDS011;4950;46.042;14.472;2023-08-07T13:05:11;0.50;;;0.50;;
9821;SDS011;4950;46.042;14.472;2023-08-07T13:07:39;0.60;;;0.57;;
9821;SDS011;4950;46.042;14.472;2023-08-07T13:10:07;0.77;;;0.65;;
9821;SDS011;4950;46.042;14.472;2023-08-07T13:15:02;0.75;;;0.50;;
9821;SDS011;4950;46.042;14.472;2023-08-07T13:17:30;0.47;;;0.47;;
9821;SDS011;4950;46.042;14.472;2023-08-07T13:19:58;1.27;;;0.50;;
9821;SDS011;4950;46.042;14.472;2023-08-07T13:22:26;0.57;;;0.52;;
9821;SDS011;4950;46.042;14.472;2023-08-07T13:24:53;6.57;;;0.70;;
9821;SDS011;4950;46.042;14.472;2023-08-07T13:27:20;2.85;;;0.68;;
9821;SDS011;4950;46.042;14.472;2023-08-07T13:29:47;1.05;;;0.52;;
9821;SDS011;4950;46.042;14.472;2023-08-07T13:32:14;5.05;;;0.70;;
9821;SDS011;4950;46.042;14.472;2023-08-07T13:34:43;2.22;;;0.70;;
9821;SDS011;4950;46.042;14.472;2023-08-07T13:37:11;2.75;;;0.90;;
9821;SDS011;4950;46.042;14.472;2023-08-07T13:42:06;1.00;;;0.65;;
9821;SDS011;4950;46.042;14.472;2023-08-07T13:44:33;0.55;;;0.50;;
9821;SDS011;4950;46.042;14.472;2023-08-07T13:47:00;2.45;;;0.80;;
9821;SDS011;4950;46.042;14.472;2023-08-07T13:49:27;8.80;;;0.90;;
9821;SDS011;4950;46.042;14.472;2023-08-07T13:51:53;1.88;;;0.70;;
9821;SDS011;4950;46.042;14.472;2023-08-07T13:54:23;4.65;;;0.85;;
9821;SDS011;4950;46.042;14.472;2023-08-07T13:56:50;2.00;;;1.00;;
9821;SDS011;4950;46.042;14.472;2023-08-07T13:59:16;1.88;;;0.75;;
9821;SDS011;4950;46.042;14.472;2023-08-07T14:01:43;3.15;;;1.17;;
9821;SDS011;4950;46.042;14.472;2023-08-07T14:04:10;1.23;;;0.80;;
9821;SDS011;4950;46.042;14.472;2023-08-07T14:06:39;1.85;;;1.02;;
9821;SDS011;4950;46.042;14.472;2023-08-07T14:09:07;2.47;;;1.00;;
9821;SDS011;4950;46.042;14.472;2023-08-07T14:11:35;1.25;;;1.00;;
9821;SDS011;4950;46.042;14.472;2023-08-07T14:14:04;1.23;;;0.90;;
9821;SDS011;4950;46.042;14.472;2023-08-07T14:16:31;1.83;;;1.20;;
9821;SDS011;4950;46.042;14.472;2023-08-07T14:18:58;4.18;;;1.23;;
9821;SDS011;4950;46.042;14.472;2023-08-07T14:21:24;3.05;;;1.45;;
9821;SDS011;4950;46.042;14.472;2023-08-07T14:23:51;4.40;;;1.52;;
9821;SDS011;4950;46.042;14.472;2023-08-07T14:26:18;2.83;;;1.73;;
9821;SDS011;4950;46.042;14.472;2023-08-07T14:28:47;6.07;;;2.08;;
9821;SDS011;4950;46.042;14.472;2023-08-07T14:31:14;5.57;;;2.22;;
9821;SDS011;4950;46.042;14.472;2023-08-07T14:33:40;4.30;;;1.85;;
9821;SDS011;4950;46.042;14.472;2023-08-07T14:36:07;5.38;;;2.50;;
9821;SDS011;4950;46.042;14.472;2023-08-07T14:38:34;2.85;;;1.77;;
9821;SDS011;4950;46.042;14.472;2023-08-07T14:41:01;4.53;;;2.40;;
9821;SDS011;4950;46.042;14.472;2023-08-07T14:43:28;4.80;;;1.83;;
9821;SDS011;4950;46.042;14.472;2023-08-07T14:45:57;6.55;;;2.13;;
9821;SDS011;4950;46.042;14.472;2023-08-07T14:48:24;4.97;;;2.03;;
9821;SDS011;4950;46.042;14.472;2023-08-07T14:50:51;6.10;;;2.13;;
9821;SDS011;4950;46.042;14.472;2023-08-07T14:53:18;3.63;;;1.65;;
9821;SDS011;4950;46.042;14.472;2023-08-07T14:55:45;3.15;;;1.52;;
9821;SDS011;4950;46.042;14.472;2023-08-07T14:58:11;2.72;;;1.20;;
9821;SDS011;4950;46.042;14.472;2023-08-07T15:00:39;1.52;;;0.80;;
9821;SDS011;4950;46.042;14.472;2023-08-07T15:03:07;3.10;;;0.88;;
9821;SDS011;4950;46.042;14.472;2023-08-07T15:05:34;3.20;;;1.17;;
9821;SDS011;4950;46.042;14.472;2023-08-07T15:08:01;1.15;;;0.73;;
9821;SDS011;4950;46.042;14.472;2023-08-07T15:10:27;1.27;;;0.80;;
9821;SDS011;4950;46.042;14.472;2023-08-07T15:12:54;2.20;;;1.08;;
9821;SDS011;4950;46.042;14.472;2023-08-07T15:15:21;1.65;;;0.63;;
9821;SDS011;4950;46.042;14.472;2023-08-07T15:17:50;1.13;;;0.68;;
9821;SDS011;4950;46.042;14.472;2023-08-07T15:20:19;2.50;;;0.77;;
9821;SDS011;4950;46.042;14.472;2023-08-07T15:22:46;1.10;;;0.70;;